Olympic National Park, WA

09:24 PM PDT am 23. September 2014 (GMT -0700)
Lake Dawn | Change Station
CLOSE
Current Station
Persönliche Wetterstationen
Location: Port Angeles, WA
Höhe: 1864 ft
Wetterstationen in der Umgebung

Höhe 1864 ft 48.04 °N, 123.43 °W | Updated 9 minutes ago

Regen
Regen
54.3 °F
gefühlte 54.3 °F
N
0.7
Wind Wechselnd Wind aus Nord
Gusts 1.6 mph

Heute
Max. -- | schwach -- °F
--% Regenrisiko
Gestern
Max. -- | schwach -- °F
Precip. -- inch
7:02 AM 7:09 PM
Letztes Viertel, 0% visible
Druck 29.69 inch
Sichtweite 4.0 Meilen
Wolken
Taupunkt 54 °F
Feuchtigkeit 99%
Regen 0.18 inch
Schneehöhe 3 in , 0 in , 0 in
UV Nicht verfügbar..
Pollen .40 von 12
PM2.5 Gut
Flu Activity Nicht verfügbar..
SPECI KCLM 240400Z AUTO 30003KT 4SM -RA BR 14/13 A2969 RMK AO2 P0001 T01440133 $

More Conditions Fewer Conditions

Druck 29.69 inch
Sichtweite 4.0 Meilen
Wolken
Taupunkt 54 °F
Feuchtigkeit 99%
Regen 0.18 inch
Schneehöhe 3 in , 0 in , 0 in
UV Nicht verfügbar..
Pollen .40 von 12
PM2.5 Gut
Flu Activity Nicht verfügbar..
SPECI KCLM 240400Z AUTO 30003KT 4SM -RA BR 14/13 A2969 RMK AO2 P0001 T01440133 $

More Conditions Fewer Conditions

10-Day Weather Forecast

Almanac

Astronomie

Sep. 23, 2014 Aufgang Untergang
Genaue Zeit 07:02 PDT 19:09 PDT
Bürgerliche Dämmerung 06:31 PDT 19:40 PDT
Nautische Dämmerung 05:54 PDT 20:16 PDT
Astronomische Dämmerung 05:17 PDT 20:54 PDT
Mond 06:31 PDT (9/23) 18:49 PDT (9/23)
Länge des sichtbaren Lichts 13h 09m
Tageslänge
12h 07m
Tomorrow will be 3m 28s shorter.
Letztes Viertel, 0% of the Moon is Illuminated
Sept 24
Letztes Viertel
Sept 24
Neu
Okt 1
Erstes Viertel
Okt 8
Vollmond
Okt 15
Letztes Viertel

Heutige Rekorde

State Highs State Lows

Community

WunderPhotos

Upload Photos

1,755,890 Fotos hochgeladen!

WunderBlogs® & News

Nearby

Luftqualität

  Luftqualität LQ Index Schadstoff
Gestern Gut
PM2.5
Aktuell Gut
PM2.5

Schneehöhe

Station Depth Höhe
Mf Nooksack 3 in 4980 ft
Blewett Pass 0 in 4270 ft
Stampede Pass 0 in 3860 ft
Dungeness 0 in 4100 ft
Spencer Meadow 0 in 3400 ft

Erdbebenaktivität

Stadt Distance Mag. Time & Date
No recent earthquake activity has been reported nearby.
Minimum magnitude displayed is 2.5.

küstennahe Wassertemperaturen

Ort Temperatur
Port Angeles, WA 52.0 °F
Friday Harbor, WA 52.0 °F
Port Townsend, WA 53.1 °F
La Push, WA 57.9 °F

Wetterstationen in der Umgebung